Time;durP1;ratioP1;P1;durP2;ratioP2;P2;SDS_P1;SDS_P2;PMS_P1;PMS_P2;Temp;Humidity;BMP_temperature;BMP_pressure;BME280_temperature;BME280_humidity;BME280_pressure;Samples;Min_cycle;Max_cycle;Signal;HPM_P1;HPM_P2
2023/08/06 00:07:18;;;;;;;;;;;14.70;99.90;;;;;;20807458;28;19917;-73
2023/08/06 00:17:18;;;;;;;;;;;14.70;99.90;;;;;;20823811;28;19925;-74
2023/08/06 00:27:19;;;;;;;;;;;14.60;99.90;;;;;;20823771;28;20014;-73
2023/08/06 00:37:20;;;;;;;;;;;14.40;99.90;;;;;;20843082;28;19913;-73
2023/08/06 00:47:21;;;;;;;;;;;14.10;99.90;;;;;;20837192;28;20019;-73
2023/08/06 00:57:24;;;;;;;;;;;13.70;99.90;;;;;;20837571;28;20359;-73
2023/08/06 01:07:43;;;;;;;;;;;13.70;99.90;;;;;;20858500;28;19917;-75
2023/08/06 01:17:44;;;;;;;;;;;13.70;99.90;;;;;;20834415;28;20380;-74
2023/08/06 01:27:49;;;;;;;;;;;13.70;99.90;;;;;;20833433;28;19920;-75
2023/08/06 01:37:50;;;;;;;;;;;13.70;99.90;;;;;;20834335;28;20067;-74
2023/08/06 01:47:50;;;;;;;;;;;13.70;99.90;;;;;;20848676;28;19956;-75
2023/08/06 01:57:51;;;;;;;;;;;13.50;99.90;;;;;;20831411;28;19955;-75
2023/08/06 02:07:52;;;;;;;;;;;13.40;99.90;;;;;;20831086;28;19936;-73
2023/08/06 02:17:52;;;;;;;;;;;13.50;99.90;;;;;;20836967;28;19917;-75
2023/08/06 02:27:53;;;;;;;;;;;13.60;99.90;;;;;;20828952;28;20370;-75
2023/08/06 02:37:54;;;;;;;;;;;13.60;99.90;;;;;;20830246;28;19943;-76
2023/08/06 02:47:56;;;;;;;;;;;13.70;99.90;;;;;;20827377;28;19925;-75
2023/08/06 02:57:57;;;;;;;;;;;13.80;99.90;;;;;;20831259;28;20008;-74
2023/08/06 03:07:58;;;;;;;;;;;14.10;99.90;;;;;;20826004;28;20438;-75
2023/08/06 03:18:02;;;;;;;;;;;14.40;99.90;;;;;;20832799;28;19986;-75
2023/08/06 03:28:03;;;;;;;;;;;14.50;99.90;;;;;;20825038;28;20224;-74
2023/08/06 03:38:04;;;;;;;;;;;14.00;99.90;;;;;;20826073;28;20282;-75
2023/08/06 03:48:05;;;;;;;;;;;13.50;99.90;;;;;;20825181;28;20009;-74
2023/08/06 03:58:06;;;;;;;;;;;13.00;99.90;;;;;;20823526;28;20003;-74
2023/08/06 04:08:07;;;;;;;;;;;12.50;99.90;;;;;;20824918;28;19947;-74
2023/08/06 04:18:07;;;;;;;;;;;12.40;99.90;;;;;;20837949;28;19940;-75
2023/08/06 04:28:08;;;;;;;;;;;12.30;99.90;;;;;;20837032;28;19920;-75
2023/08/06 04:38:09;;;;;;;;;;;12.30;99.90;;;;;;20836560;28;20519;-74
2023/08/06 04:48:10;;;;;;;;;;;12.20;99.90;;;;;;20837652;28;19924;-74
2023/08/06 04:58:10;;;;;;;;;;;12.20;99.90;;;;;;20837598;28;19936;-74
2023/08/06 05:08:17;;;;;;;;;;;12.30;99.90;;;;;;20841881;28;19913;-75
2023/08/06 05:18:18;;;;;;;;;;;12.20;99.90;;;;;;20906857;22;19947;-76
2023/08/06 05:28:18;;;;;;;;;;;12.30;99.90;;;;;;20919304;28;19956;-76
2023/08/06 05:38:19;;;;;;;;;;;12.50;99.90;;;;;;20918980;28;19982;-76
2023/08/06 05:48:22;;;;;;;;;;;12.70;99.90;;;;;;20838546;28;19966;-76
2023/08/06 05:58:25;;;;;;;;;;;12.80;99.90;;;;;;20841129;28;20399;-77
2023/08/06 06:08:26;;;;;;;;;;;12.70;99.90;;;;;;20841163;28;19913;-76
2023/08/06 06:18:26;;;;;;;;;;;12.70;99.90;;;;;;20833813;28;20444;-76
2023/08/06 06:28:27;;;;;;;;;;;12.70;99.90;;;;;;20845230;28;19912;-77
2023/08/06 06:38:28;;;;;;;;;;;12.80;99.90;;;;;;20880843;28;19917;-78
2023/08/06 06:48:29;;;;;;;;;;;12.90;99.90;;;;;;20884260;28;19980;-78
2023/08/06 06:58:30;;;;;;;;;;;13.00;99.90;;;;;;20869360;28;19920;-79
2023/08/06 07:08:31;;;;;;;;;;;12.90;99.90;;;;;;20883460;28;19924;-77
2023/08/06 07:18:33;;;;;;;;;;;12.90;99.90;;;;;;20860505;28;21511;-78
2023/08/06 07:28:34;;;;;;;;;;;12.80;99.90;;;;;;20849868;28;20335;-79
2023/08/06 07:38:35;;;;;;;;;;;12.80;99.90;;;;;;20847624;28;19917;-78
2023/08/06 07:48:36;;;;;;;;;;;12.70;99.90;;;;;;20839668;28;19913;-78
2023/08/06 07:58:36;;;;;;;;;;;12.50;99.90;;;;;;20862863;28;19921;-77
2023/08/06 08:08:38;;;;;;;;;;;12.50;99.90;;;;;;20858710;28;19929;-78
2023/08/06 08:18:39;;;;;;;;;;;12.50;99.90;;;;;;20849446;28;19962;-77
2023/08/06 08:28:40;;;;;;;;;;;12.60;99.90;;;;;;20821935;28;19913;-77
2023/08/06 08:38:41;;;;;;;;;;;12.70;99.90;;;;;;20833780;28;19924;-77
2023/08/06 08:48:43;;;;;;;;;;;12.80;99.90;;;;;;20830778;28;20429;-77
2023/08/06 08:58:44;;;;;;;;;;;12.80;99.90;;;;;;20830720;28;19927;-77
2023/08/06 09:09:02;;;;;;;;;;;12.80;99.90;;;;;;20844346;28;19913;-76
2023/08/06 09:19:09;;;;;;;;;;;12.90;99.90;;;;;;20836387;28;19928;-77
2023/08/06 09:29:13;;;;;;;;;;;12.90;99.90;;;;;;20840334;28;20398;-77
2023/08/06 09:39:17;;;;;;;;;;;12.90;99.90;;;;;;20838513;28;20023;-77
2023/08/06 09:49:18;;;;;;;;;;;12.70;99.90;;;;;;20834988;28;19920;-76
2023/08/06 09:59:19;;;;;;;;;;;12.80;99.90;;;;;;20833035;28;19917;-76
2023/08/06 10:09:20;;;;;;;;;;;12.70;99.90;;;;;;20831663;28;19913;-77
2023/08/06 10:19:21;;;;;;;;;;;12.70;99.90;;;;;;20831007;28;19918;-76
2023/08/06 10:29:42;;;;;;;;;;;12.70;99.90;;;;;;20906678;28;20351;-76
2023/08/06 10:39:52;;;;;;;;;;;12.90;99.90;;;;;;20904026;28;20444;-76
2023/08/06 10:49:52;;;;;;;;;;;13.10;99.90;;;;;;20828885;28;19917;-76
2023/08/06 10:59:53;;;;;;;;;;;13.40;99.90;;;;;;20836156;28;20298;-76
2023/08/06 11:10:01;;;;;;;;;;;13.20;99.90;;;;;;20827929;28;19913;-76
2023/08/06 11:20:03;;;;;;;;;;;13.10;99.90;;;;;;20954898;23;19924;-76
2023/08/06 11:30:03;;;;;;;;;;;13.00;99.90;;;;;;20955302;28;19919;-76
2023/08/06 11:40:07;;;;;;;;;;;13.00;99.90;;;;;;20918223;28;20385;-76
2023/08/06 11:50:08;;;;;;;;;;;13.30;99.90;;;;;;20990592;28;19919;-76
2023/08/06 12:00:10;;;;;;;;;;;13.30;99.90;;;;;;20989429;28;19916;-76
2023/08/06 12:10:16;;;;;;;;;;;13.40;99.90;;;;;;20975774;28;19917;-76
2023/08/06 12:20:17;;;;;;;;;;;13.50;99.90;;;;;;20951912;28;20023;-76
2023/08/06 12:30:18;;;;;;;;;;;13.90;99.90;;;;;;20943410;28;19917;-76
2023/08/06 12:40:18;;;;;;;;;;;14.10;99.90;;;;;;20960861;28;19921;-77
2023/08/06 12:50:19;;;;;;;;;;;13.80;99.90;;;;;;20932488;28;19917;-77
2023/08/06 13:00:20;;;;;;;;;;;13.80;99.90;;;;;;20960474;28;19932;-76
2023/08/06 13:10:21;;;;;;;;;;;13.90;99.90;;;;;;20958685;28;20022;-75
2023/08/06 13:20:22;;;;;;;;;;;14.00;99.90;;;;;;20955573;28;19920;-76
2023/08/06 13:30:23;;;;;;;;;;;14.20;99.90;;;;;;20917099;28;19960;-76
2023/08/06 13:40:24;;;;;;;;;;;13.50;99.90;;;;;;20984846;28;19943;-76
2023/08/06 13:50:26;;;;;;;;;;;13.40;99.90;;;;;;20997790;28;19919;-77
2023/08/06 14:00:26;;;;;;;;;;;14.00;99.90;;;;;;20997304;28;20370;-76
2023/08/06 14:10:27;;;;;;;;;;;15.20;99.90;;;;;;20972506;28;19923;-76
2023/08/06 14:20:28;;;;;;;;;;;16.00;99.90;;;;;;20974767;28;19936;-76
2023/08/06 14:30:29;;;;;;;;;;;16.30;99.90;;;;;;20929390;28;19913;-76
2023/08/06 14:40:33;;;;;;;;;;;16.80;99.90;;;;;;20948657;28;19932;-75
2023/08/06 14:50:34;;;;;;;;;;;16.50;99.90;;;;;;20929043;28;19912;-75
2023/08/06 15:00:35;;;;;;;;;;;15.80;99.90;;;;;;20970659;28;19920;-76
2023/08/06 15:10:35;;;;;;;;;;;16.10;99.90;;;;;;20942670;28;19924;-76
2023/08/06 15:20:36;;;;;;;;;;;16.00;99.90;;;;;;20991212;28;19982;-76
2023/08/06 15:30:37;;;;;;;;;;;15.60;99.90;;;;;;20990025;28;19966;-76
2023/08/06 15:40:37;;;;;;;;;;;16.20;99.90;;;;;;20953338;28;19999;-75
2023/08/06 15:50:38;;;;;;;;;;;15.90;99.90;;;;;;20932035;28;19913;-75
2023/08/06 16:00:39;;;;;;;;;;;15.50;99.90;;;;;;20916637;28;19925;-75
2023/08/06 16:10:43;;;;;;;;;;;15.60;99.90;;;;;;20912908;28;19919;-75
2023/08/06 16:20:44;;;;;;;;;;;16.00;99.90;;;;;;21005387;28;19917;-75
2023/08/06 16:30:45;;;;;;;;;;;15.80;99.90;;;;;;21005211;28;19920;-75
2023/08/06 16:40:56;;;;;;;;;;;16.10;99.90;;;;;;20990127;28;19917;-75
2023/08/06 16:50:58;;;;;;;;;;;16.00;99.90;;;;;;21001842;28;19919;-75
2023/08/06 17:01:04;;;;;;;;;;;16.10;99.90;;;;;;21002636;28;20014;-76
2023/08/06 17:11:05;;;;;;;;;;;15.60;99.90;;;;;;21002790;28;20275;-75
2023/08/06 17:21:05;;;;;;;;;;;15.50;99.90;;;;;;21003166;28;19917;-75
2023/08/06 17:31:07;;;;;;;;;;;15.40;99.90;;;;;;21001386;28;19916;-77
2023/08/06 17:41:07;;;;;;;;;;;15.00;99.90;;;;;;20999505;28;20294;-77
2023/08/06 17:51:08;;;;;;;;;;;15.00;99.90;;;;;;20999496;28;19912;-76
2023/08/06 18:01:08;;;;;;;;;;;15.00;99.90;;;;;;20997026;28;19928;-76
2023/08/06 18:11:09;;;;;;;;;;;14.80;99.90;;;;;;20998396;28;20007;-77
2023/08/06 18:21:10;;;;;;;;;;;14.50;99.90;;;;;;20984804;28;20007;-76
2023/08/06 18:31:11;;;;;;;;;;;14.40;99.90;;;;;;20954593;28;19923;-77
2023/08/06 18:41:12;;;;;;;;;;;14.40;99.90;;;;;;20935526;28;19923;-77
2023/08/06 18:51:12;;;;;;;;;;;14.20;99.90;;;;;;20981839;28;20387;-77
2023/08/06 19:01:13;;;;;;;;;;;14.10;99.90;;;;;;20955471;28;19970;-77
2023/08/06 19:11:14;;;;;;;;;;;14.00;99.90;;;;;;20947542;28;19975;-76
2023/08/06 19:21:14;;;;;;;;;;;13.90;99.90;;;;;;20994160;28;19997;-75
2023/08/06 19:31:15;;;;;;;;;;;13.80;99.90;;;;;;20992106;28;19995;-76
2023/08/06 19:41:16;;;;;;;;;;;13.70;99.90;;;;;;20991969;28;19917;-78
2023/08/06 19:51:18;;;;;;;;;;;13.60;99.90;;;;;;20987586;28;19920;-76
2023/08/06 20:01:18;;;;;;;;;;;13.50;99.90;;;;;;20926955;28;19917;-77
2023/08/06 20:11:19;;;;;;;;;;;13.40;99.90;;;;;;20931018;28;19912;-77
2023/08/06 20:21:20;;;;;;;;;;;13.20;99.90;;;;;;20987838;28;19971;-77
2023/08/06 20:31:20;;;;;;;;;;;13.10;99.90;;;;;;20984194;28;19981;-77
2023/08/06 20:41:21;;;;;;;;;;;13.00;99.90;;;;;;20956987;28;20358;-76
2023/08/06 20:51:22;;;;;;;;;;;13.00;99.90;;;;;;20995450;28;19916;-77
2023/08/06 21:01:22;;;;;;;;;;;12.90;99.90;;;;;;21014053;28;20007;-76
2023/08/06 21:11:23;;;;;;;;;;;12.80;99.90;;;;;;20940134;28;19916;-76
2023/08/06 21:21:24;;;;;;;;;;;12.80;99.90;;;;;;20932726;28;20394;-77
2023/08/06 21:31:26;;;;;;;;;;;12.80;99.90;;;;;;20930918;28;19919;-76
2023/08/06 21:41:28;;;;;;;;;;;12.80;99.90;;;;;;20949123;28;19939;-77
2023/08/06 21:51:29;;;;;;;;;;;12.90;99.90;;;;;;21000170;28;19920;-76
2023/08/06 22:01:30;;;;;;;;;;;13.00;99.90;;;;;;21002581;28;20309;-77
2023/08/06 22:11:30;;;;;;;;;;;12.80;99.90;;;;;;20997237;28;20412;-76
2023/08/06 22:21:31;;;;;;;;;;;12.70;99.90;;;;;;20997236;28;19969;-77
2023/08/06 22:31:32;;;;;;;;;;;12.70;99.90;;;;;;20996689;28;19959;-76
2023/08/06 22:41:32;;;;;;;;;;;12.70;99.90;;;;;;20996583;28;19916;-77
2023/08/06 22:51:33;;;;;;;;;;;12.80;99.90;;;;;;20991811;28;20367;-77
2023/08/06 23:01:33;;;;;;;;;;;12.80;99.90;;;;;;20962588;28;20314;-77
2023/08/06 23:11:34;;;;;;;;;;;12.70;99.90;;;;;;20944290;28;19935;-77
2023/08/06 23:21:35;;;;;;;;;;;12.50;99.90;;;;;;20991843;28;20015;-77
2023/08/06 23:31:35;;;;;;;;;;;12.50;99.90;;;;;;20971158;28;19912;-76
2023/08/06 23:41:36;;;;;;;;;;;12.50;99.90;;;;;;20946059;28;20420;-77
2023/08/06 23:51:37;;;;;;;;;;;12.60;99.90;;;;;;20947834;28;19970;-76
